sensor_id;sensor_type;location;lat;lon;timestamp;P1;durP1;ratioP1;P2;durP2;ratioP2
37131;SDS011;23035;50.032;21.978;2023-01-16T00:01:24;4.32;;;2.42;;
37131;SDS011;23035;50.032;21.978;2023-01-16T00:06:31;3.03;;;2.30;;
37131;SDS011;23035;50.032;21.978;2023-01-16T00:11:37;4.88;;;2.95;;
37131;SDS011;23035;50.032;21.978;2023-01-16T00:16:43;30.60;;;21.08;;
37131;SDS011;23035;50.032;21.978;2023-01-16T00:21:48;356.85;;;105.22;;
37131;SDS011;23035;50.032;21.978;2023-01-16T00:26:52;104.88;;;44.08;;
37131;SDS011;23035;50.032;21.978;2023-01-16T00:31:58;5.20;;;3.45;;
37131;SDS011;23035;50.032;21.978;2023-01-16T00:37:03;5.63;;;3.35;;
37131;SDS011;23035;50.032;21.978;2023-01-16T00:42:07;4.85;;;3.25;;
37131;SDS011;23035;50.032;21.978;2023-01-16T00:47:13;4.78;;;2.70;;
37131;SDS011;23035;50.032;21.978;2023-01-16T00:52:18;4.63;;;2.92;;
37131;SDS011;23035;50.032;21.978;2023-01-16T00:57:22;5.47;;;3.22;;
37131;SDS011;23035;50.032;21.978;2023-01-16T01:02:28;4.60;;;2.60;;
37131;SDS011;23035;50.032;21.978;2023-01-16T01:07:33;6.10;;;2.85;;
37131;SDS011;23035;50.032;21.978;2023-01-16T01:12:37;5.35;;;3.17;;
37131;SDS011;23035;50.032;21.978;2023-01-16T01:17:43;4.90;;;2.50;;
37131;SDS011;23035;50.032;21.978;2023-01-16T01:22:48;3.85;;;2.22;;
37131;SDS011;23035;50.032;21.978;2023-01-16T01:27:52;6.63;;;2.40;;
37131;SDS011;23035;50.032;21.978;2023-01-16T01:32:58;4.32;;;1.92;;
37131;SDS011;23035;50.032;21.978;2023-01-16T01:38:03;5.32;;;2.03;;
37131;SDS011;23035;50.032;21.978;2023-01-16T01:43:10;3.53;;;1.85;;
37131;SDS011;23035;50.032;21.978;2023-01-16T01:48:21;2.95;;;1.90;;
37131;SDS011;23035;50.032;21.978;2023-01-16T01:53:30;2.15;;;1.67;;
37131;SDS011;23035;50.032;21.978;2023-01-16T01:58:37;3.05;;;1.63;;
37131;SDS011;23035;50.032;21.978;2023-01-16T02:03:50;2.13;;;1.70;;
37131;SDS011;23035;50.032;21.978;2023-01-16T02:09:00;5.20;;;2.45;;
37131;SDS011;23035;50.032;21.978;2023-01-16T02:14:07;4.15;;;2.30;;
37131;SDS011;23035;50.032;21.978;2023-01-16T02:19:17;3.60;;;2.40;;
37131;SDS011;23035;50.032;21.978;2023-01-16T02:24:40;6.68;;;2.55;;
37131;SDS011;23035;50.032;21.978;2023-01-16T02:30:12;2.72;;;1.98;;
37131;SDS011;23035;50.032;21.978;2023-01-16T02:35:34;3.67;;;2.30;;
37131;SDS011;23035;50.032;21.978;2023-01-16T02:40:55;3.75;;;2.55;;
37131;SDS011;23035;50.032;21.978;2023-01-16T02:46:08;3.90;;;2.50;;
37131;SDS011;23035;50.032;21.978;2023-01-16T02:51:23;3.72;;;2.38;;
37131;SDS011;23035;50.032;21.978;2023-01-16T02:56:39;4.13;;;2.65;;
37131;SDS011;23035;50.032;21.978;2023-01-16T03:01:49;4.93;;;3.10;;
37131;SDS011;23035;50.032;21.978;2023-01-16T03:06:56;5.35;;;3.03;;
37131;SDS011;23035;50.032;21.978;2023-01-16T03:12:14;4.93;;;2.83;;
37131;SDS011;23035;50.032;21.978;2023-01-16T03:17:34;4.82;;;2.85;;
37131;SDS011;23035;50.032;21.978;2023-01-16T03:22:54;4.40;;;2.70;;
37131;SDS011;23035;50.032;21.978;2023-01-16T03:28:10;5.07;;;3.03;;
37131;SDS011;23035;50.032;21.978;2023-01-16T03:33:24;4.28;;;2.72;;
37131;SDS011;23035;50.032;21.978;2023-01-16T03:38:37;4.35;;;2.75;;
37131;SDS011;23035;50.032;21.978;2023-01-16T03:43:44;4.05;;;2.58;;
37131;SDS011;23035;50.032;21.978;2023-01-16T03:48:55;4.25;;;2.95;;
37131;SDS011;23035;50.032;21.978;2023-01-16T03:54:07;5.10;;;3.25;;
37131;SDS011;23035;50.032;21.978;2023-01-16T03:59:15;3.97;;;3.03;;
37131;SDS011;23035;50.032;21.978;2023-01-16T04:04:23;5.22;;;3.13;;
37131;SDS011;23035;50.032;21.978;2023-01-16T04:09:34;3.10;;;2.28;;
37131;SDS011;23035;50.032;21.978;2023-01-16T04:14:44;4.82;;;3.03;;
37131;SDS011;23035;50.032;21.978;2023-01-16T04:19:52;4.03;;;3.00;;
37131;SDS011;23035;50.032;21.978;2023-01-16T04:24:59;3.77;;;2.40;;
37131;SDS011;23035;50.032;21.978;2023-01-16T04:30:06;3.42;;;2.40;;
37131;SDS011;23035;50.032;21.978;2023-01-16T04:40:17;4.65;;;2.83;;
37131;SDS011;23035;50.032;21.978;2023-01-16T04:45:22;5.18;;;3.75;;
37131;SDS011;23035;50.032;21.978;2023-01-16T04:50:27;4.47;;;3.10;;
37131;SDS011;23035;50.032;21.978;2023-01-16T04:55:33;4.85;;;2.83;;
37131;SDS011;23035;50.032;21.978;2023-01-16T05:00:38;7.25;;;3.70;;
37131;SDS011;23035;50.032;21.978;2023-01-16T05:05:43;5.05;;;3.85;;
37131;SDS011;23035;50.032;21.978;2023-01-16T05:10:49;5.20;;;3.67;;
37131;SDS011;23035;50.032;21.978;2023-01-16T05:15:53;6.20;;;3.58;;
37131;SDS011;23035;50.032;21.978;2023-01-16T05:20:58;7.97;;;4.47;;
37131;SDS011;23035;50.032;21.978;2023-01-16T05:26:05;6.63;;;4.30;;
37131;SDS011;23035;50.032;21.978;2023-01-16T05:31:10;8.15;;;4.60;;
37131;SDS011;23035;50.032;21.978;2023-01-16T05:36:15;9.10;;;5.60;;
37131;SDS011;23035;50.032;21.978;2023-01-16T05:41:21;16.73;;;6.17;;
37131;SDS011;23035;50.032;21.978;2023-01-16T05:46:26;15.18;;;7.47;;
37131;SDS011;23035;50.032;21.978;2023-01-16T05:51:31;21.00;;;10.07;;
37131;SDS011;23035;50.032;21.978;2023-01-16T05:56:37;14.70;;;7.32;;
37131;SDS011;23035;50.032;21.978;2023-01-16T06:01:41;9.57;;;5.35;;
37131;SDS011;23035;50.032;21.978;2023-01-16T06:06:48;8.55;;;4.60;;
37131;SDS011;23035;50.032;21.978;2023-01-16T06:11:54;8.93;;;4.60;;
37131;SDS011;23035;50.032;21.978;2023-01-16T06:22:03;9.30;;;5.43;;
37131;SDS011;23035;50.032;21.978;2023-01-16T06:27:09;6.60;;;4.35;;
37131;SDS011;23035;50.032;21.978;2023-01-16T06:32:14;8.70;;;5.38;;
37131;SDS011;23035;50.032;21.978;2023-01-16T06:42:25;8.25;;;5.20;;
37131;SDS011;23035;50.032;21.978;2023-01-16T06:47:30;9.55;;;6.10;;
37131;SDS011;23035;50.032;21.978;2023-01-16T06:52:35;9.43;;;5.38;;
37131;SDS011;23035;50.032;21.978;2023-01-16T06:57:42;22.98;;;10.32;;
37131;SDS011;23035;50.032;21.978;2023-01-16T07:02:51;93.88;;;11.10;;
37131;SDS011;23035;50.032;21.978;2023-01-16T07:07:57;27.58;;;10.82;;
37131;SDS011;23035;50.032;21.978;2023-01-16T07:13:03;22.05;;;11.10;;
37131;SDS011;23035;50.032;21.978;2023-01-16T07:18:09;11.73;;;7.00;;
37131;SDS011;23035;50.032;21.978;2023-01-16T07:23:33;11.18;;;6.45;;
37131;SDS011;23035;50.032;21.978;2023-01-16T07:28:40;16.38;;;7.13;;
37131;SDS011;23035;50.032;21.978;2023-01-16T07:33:46;9.93;;;6.72;;
37131;SDS011;23035;50.032;21.978;2023-01-16T07:38:50;12.82;;;7.90;;
37131;SDS011;23035;50.032;21.978;2023-01-16T07:43:57;15.50;;;8.88;;
37131;SDS011;23035;50.032;21.978;2023-01-16T07:49:01;15.48;;;7.93;;
37131;SDS011;23035;50.032;21.978;2023-01-16T07:54:09;13.02;;;7.35;;
37131;SDS011;23035;50.032;21.978;2023-01-16T07:59:15;14.23;;;8.07;;
37131;SDS011;23035;50.032;21.978;2023-01-16T08:04:20;19.45;;;9.90;;
37131;SDS011;23035;50.032;21.978;2023-01-16T08:09:24;22.90;;;10.63;;
37131;SDS011;23035;50.032;21.978;2023-01-16T08:14:30;20.35;;;9.40;;
37131;SDS011;23035;50.032;21.978;2023-01-16T08:19:35;19.63;;;10.63;;
37131;SDS011;23035;50.032;21.978;2023-01-16T08:24:40;27.02;;;13.88;;
37131;SDS011;23035;50.032;21.978;2023-01-16T08:29:46;18.77;;;7.68;;
37131;SDS011;23035;50.032;21.978;2023-01-16T08:34:50;11.48;;;7.18;;
37131;SDS011;23035;50.032;21.978;2023-01-16T08:39:55;11.02;;;5.78;;
37131;SDS011;23035;50.032;21.978;2023-01-16T08:45:01;11.23;;;7.10;;
37131;SDS011;23035;50.032;21.978;2023-01-16T08:50:24;12.43;;;7.20;;
37131;SDS011;23035;50.032;21.978;2023-01-16T08:55:46;14.85;;;8.77;;
37131;SDS011;23035;50.032;21.978;2023-01-16T09:00:53;19.70;;;9.93;;
37131;SDS011;23035;50.032;21.978;2023-01-16T09:05:58;13.68;;;8.73;;
37131;SDS011;23035;50.032;21.978;2023-01-16T09:11:02;15.88;;;8.57;;
37131;SDS011;23035;50.032;21.978;2023-01-16T09:16:25;18.30;;;8.82;;
37131;SDS011;23035;50.032;21.978;2023-01-16T09:21:30;19.00;;;9.30;;
37131;SDS011;23035;50.032;21.978;2023-01-16T09:26:35;13.65;;;7.72;;
37131;SDS011;23035;50.032;21.978;2023-01-16T09:31:41;13.50;;;7.80;;
37131;SDS011;23035;50.032;21.978;2023-01-16T09:36:49;12.02;;;7.35;;
37131;SDS011;23035;50.032;21.978;2023-01-16T09:41:57;11.00;;;6.53;;
37131;SDS011;23035;50.032;21.978;2023-01-16T09:47:29;12.77;;;7.53;;
37131;SDS011;23035;50.032;21.978;2023-01-16T09:52:36;10.25;;;6.90;;
37131;SDS011;23035;50.032;21.978;2023-01-16T09:58:03;10.30;;;6.38;;
37131;SDS011;23035;50.032;21.978;2023-01-16T10:03:28;10.77;;;6.35;;
37131;SDS011;23035;50.032;21.978;2023-01-16T10:08:34;8.85;;;4.93;;
37131;SDS011;23035;50.032;21.978;2023-01-16T10:13:49;17.30;;;5.65;;
37131;SDS011;23035;50.032;21.978;2023-01-16T10:19:09;9.32;;;5.05;;
37131;SDS011;23035;50.032;21.978;2023-01-16T10:24:24;6.73;;;4.00;;
37131;SDS011;23035;50.032;21.978;2023-01-16T10:29:39;8.15;;;4.43;;
37131;SDS011;23035;50.032;21.978;2023-01-16T10:34:53;8.95;;;4.50;;
37131;SDS011;23035;50.032;21.978;2023-01-16T10:40:08;9.10;;;4.93;;
37131;SDS011;23035;50.032;21.978;2023-01-16T10:45:19;9.93;;;5.80;;
37131;SDS011;23035;50.032;21.978;2023-01-16T10:50:46;9.23;;;5.28;;
37131;SDS011;23035;50.032;21.978;2023-01-16T10:55:51;8.82;;;4.88;;
37131;SDS011;23035;50.032;21.978;2023-01-16T11:00:58;6.80;;;3.45;;
37131;SDS011;23035;50.032;21.978;2023-01-16T11:06:09;6.72;;;4.18;;
37131;SDS011;23035;50.032;21.978;2023-01-16T11:11:16;7.15;;;4.43;;
37131;SDS011;23035;50.032;21.978;2023-01-16T11:16:38;8.50;;;4.90;;
37131;SDS011;23035;50.032;21.978;2023-01-16T11:22:01;5.38;;;3.53;;
37131;SDS011;23035;50.032;21.978;2023-01-16T11:31:49;7.55;;;3.67;;
37131;SDS011;23035;50.032;21.978;2023-01-16T11:36:58;7.18;;;4.55;;
37131;SDS011;23035;50.032;21.978;2023-01-16T11:42:08;7.10;;;4.43;;
37131;SDS011;23035;50.032;21.978;2023-01-16T11:47:41;8.77;;;4.47;;
37131;SDS011;23035;50.032;21.978;2023-01-16T11:52:47;9.27;;;5.25;;
37131;SDS011;23035;50.032;21.978;2023-01-16T11:57:53;11.65;;;7.05;;
37131;SDS011;23035;50.032;21.978;2023-01-16T12:09:09;16.92;;;8.10;;
37131;SDS011;23035;50.032;21.978;2023-01-16T12:14:29;10.68;;;4.97;;
37131;SDS011;23035;50.032;21.978;2023-01-16T12:19:55;15.68;;;6.72;;
37131;SDS011;23035;50.032;21.978;2023-01-16T12:25:19;5.40;;;3.58;;
37131;SDS011;23035;50.032;21.978;2023-01-16T12:30:33;10.27;;;6.10;;
37131;SDS011;23035;50.032;21.978;2023-01-16T12:36:59;8.77;;;4.95;;
37131;SDS011;23035;50.032;21.978;2023-01-16T13:28:48;8.23;;;5.30;;
37131;SDS011;23035;50.032;21.978;2023-01-16T13:48:40;13.25;;;7.38;;
37131;SDS011;23035;50.032;21.978;2023-01-16T13:55:55;13.90;;;8.35;;
37131;SDS011;23035;50.032;21.978;2023-01-16T14:01:52;13.00;;;8.20;;
37131;SDS011;23035;50.032;21.978;2023-01-16T14:07:02;12.27;;;8.00;;
37131;SDS011;23035;50.032;21.978;2023-01-16T14:13:00;15.93;;;10.43;;
37131;SDS011;23035;50.032;21.978;2023-01-16T14:18:13;13.77;;;8.30;;
37131;SDS011;23035;50.032;21.978;2023-01-16T14:23:23;14.95;;;9.48;;
37131;SDS011;23035;50.032;21.978;2023-01-16T14:28:49;15.73;;;10.15;;
37131;SDS011;23035;50.032;21.978;2023-01-16T14:34:01;16.23;;;9.75;;
37131;SDS011;23035;50.032;21.978;2023-01-16T14:44:32;13.45;;;8.35;;
37131;SDS011;23035;50.032;21.978;2023-01-16T14:50:17;15.82;;;10.55;;
37131;SDS011;23035;50.032;21.978;2023-01-16T14:55:45;18.98;;;9.32;;
37131;SDS011;23035;50.032;21.978;2023-01-16T15:00:55;14.63;;;8.70;;
37131;SDS011;23035;50.032;21.978;2023-01-16T15:06:38;18.92;;;10.70;;
37131;SDS011;23035;50.032;21.978;2023-01-16T15:11:53;24.88;;;12.95;;
37131;SDS011;23035;50.032;21.978;2023-01-16T15:17:06;23.35;;;12.88;;
37131;SDS011;23035;50.032;21.978;2023-01-16T15:22:40;20.75;;;11.13;;
37131;SDS011;23035;50.032;21.978;2023-01-16T15:27:49;20.55;;;10.80;;
37131;SDS011;23035;50.032;21.978;2023-01-16T15:33:09;18.92;;;11.32;;
37131;SDS011;23035;50.032;21.978;2023-01-16T15:39:02;17.73;;;10.18;;
37131;SDS011;23035;50.032;21.978;2023-01-16T15:50:20;22.33;;;10.85;;
37131;SDS011;23035;50.032;21.978;2023-01-16T15:55:45;16.92;;;9.57;;
37131;SDS011;23035;50.032;21.978;2023-01-16T16:08:26;23.92;;;10.88;;
37131;SDS011;23035;50.032;21.978;2023-01-16T16:13:48;19.02;;;10.65;;
37131;SDS011;23035;50.032;21.978;2023-01-16T16:18:56;21.20;;;11.68;;
37131;SDS011;23035;50.032;21.978;2023-01-16T16:24:10;20.00;;;11.18;;
37131;SDS011;23035;50.032;21.978;2023-01-16T16:29:20;32.10;;;15.23;;
37131;SDS011;23035;50.032;21.978;2023-01-16T16:34:49;31.42;;;16.05;;
37131;SDS011;23035;50.032;21.978;2023-01-16T16:40:22;27.88;;;13.65;;
37131;SDS011;23035;50.032;21.978;2023-01-16T16:57:52;21.27;;;10.70;;
37131;SDS011;23035;50.032;21.978;2023-01-16T17:03:09;24.80;;;12.30;;
37131;SDS011;23035;50.032;21.978;2023-01-16T17:08:26;21.40;;;11.07;;
37131;SDS011;23035;50.032;21.978;2023-01-16T17:13:50;22.42;;;11.65;;
37131;SDS011;23035;50.032;21.978;2023-01-16T17:20:04;22.35;;;11.48;;
37131;SDS011;23035;50.032;21.978;2023-01-16T17:30:50;23.85;;;11.15;;
37131;SDS011;23035;50.032;21.978;2023-01-16T17:36:03;27.27;;;12.68;;
37131;SDS011;23035;50.032;21.978;2023-01-16T17:41:51;24.67;;;11.15;;
37131;SDS011;23035;50.032;21.978;2023-01-16T17:47:38;23.92;;;12.25;;
37131;SDS011;23035;50.032;21.978;2023-01-16T17:52:51;22.13;;;11.80;;
37131;SDS011;23035;50.032;21.978;2023-01-16T17:57:58;24.20;;;12.60;;
37131;SDS011;23035;50.032;21.978;2023-01-16T18:03:08;31.05;;;14.88;;
37131;SDS011;23035;50.032;21.978;2023-01-16T18:08:39;30.98;;;15.98;;
37131;SDS011;23035;50.032;21.978;2023-01-16T18:13:44;53.97;;;23.07;;
37131;SDS011;23035;50.032;21.978;2023-01-16T18:19:07;25.38;;;13.40;;
37131;SDS011;23035;50.032;21.978;2023-01-16T18:24:12;26.08;;;13.55;;
37131;SDS011;23035;50.032;21.978;2023-01-16T18:29:16;39.65;;;19.45;;
37131;SDS011;23035;50.032;21.978;2023-01-16T18:34:22;50.05;;;23.00;;
37131;SDS011;23035;50.032;21.978;2023-01-16T18:39:28;56.10;;;27.73;;
37131;SDS011;23035;50.032;21.978;2023-01-16T18:44:50;47.83;;;22.98;;
37131;SDS011;23035;50.032;21.978;2023-01-16T18:50:13;41.55;;;21.65;;
37131;SDS011;23035;50.032;21.978;2023-01-16T18:55:35;26.10;;;15.27;;
37131;SDS011;23035;50.032;21.978;2023-01-16T19:00:57;24.27;;;14.00;;
37131;SDS011;23035;50.032;21.978;2023-01-16T19:17:36;24.48;;;13.93;;
37131;SDS011;23035;50.032;21.978;2023-01-16T19:22:43;26.58;;;13.77;;
37131;SDS011;23035;50.032;21.978;2023-01-16T19:27:47;23.08;;;13.20;;
37131;SDS011;23035;50.032;21.978;2023-01-16T19:32:52;22.77;;;13.73;;
37131;SDS011;23035;50.032;21.978;2023-01-16T19:37:58;29.52;;;15.77;;
37131;SDS011;23035;50.032;21.978;2023-01-16T19:43:03;46.58;;;18.48;;
37131;SDS011;23035;50.032;21.978;2023-01-16T19:48:26;61.17;;;26.83;;
37131;SDS011;23035;50.032;21.978;2023-01-16T19:53:32;88.60;;;36.47;;
37131;SDS011;23035;50.032;21.978;2023-01-16T19:58:37;68.85;;;31.23;;
37131;SDS011;23035;50.032;21.978;2023-01-16T20:03:45;65.07;;;31.00;;
37131;SDS011;23035;50.032;21.978;2023-01-16T20:08:51;70.45;;;34.95;;
37131;SDS011;23035;50.032;21.978;2023-01-16T20:13:55;65.07;;;33.22;;
37131;SDS011;23035;50.032;21.978;2023-01-16T20:19:01;63.03;;;30.38;;
37131;SDS011;23035;50.032;21.978;2023-01-16T20:24:07;72.43;;;30.80;;
37131;SDS011;23035;50.032;21.978;2023-01-16T20:29:12;67.13;;;32.70;;
37131;SDS011;23035;50.032;21.978;2023-01-16T20:34:17;55.50;;;27.90;;
37131;SDS011;23035;50.032;21.978;2023-01-16T20:39:23;48.72;;;25.27;;
37131;SDS011;23035;50.032;21.978;2023-01-16T20:49:50;23.38;;;14.00;;
37131;SDS011;23035;50.032;21.978;2023-01-16T20:54:56;23.75;;;13.77;;
37131;SDS011;23035;50.032;21.978;2023-01-16T21:00:00;24.13;;;14.05;;
37131;SDS011;23035;50.032;21.978;2023-01-16T21:05:05;24.77;;;13.27;;
37131;SDS011;23035;50.032;21.978;2023-01-16T21:10:11;22.30;;;12.88;;
37131;SDS011;23035;50.032;21.978;2023-01-16T21:15:16;23.55;;;12.48;;
37131;SDS011;23035;50.032;21.978;2023-01-16T21:20:21;24.25;;;13.25;;
37131;SDS011;23035;50.032;21.978;2023-01-16T21:25:44;28.00;;;13.90;;
37131;SDS011;23035;50.032;21.978;2023-01-16T21:30:58;22.40;;;13.00;;
37131;SDS011;23035;50.032;21.978;2023-01-16T21:36:06;28.02;;;13.30;;
37131;SDS011;23035;50.032;21.978;2023-01-16T21:41:15;20.30;;;11.18;;
37131;SDS011;23035;50.032;21.978;2023-01-16T21:46:20;18.45;;;10.45;;
37131;SDS011;23035;50.032;21.978;2023-01-16T21:51:32;17.30;;;10.13;;
37131;SDS011;23035;50.032;21.978;2023-01-16T21:56:38;19.38;;;10.38;;
37131;SDS011;23035;50.032;21.978;2023-01-16T22:01:43;14.70;;;8.68;;
37131;SDS011;23035;50.032;21.978;2023-01-16T22:06:47;14.95;;;8.60;;
37131;SDS011;23035;50.032;21.978;2023-01-16T22:11:53;16.40;;;9.32;;
37131;SDS011;23035;50.032;21.978;2023-01-16T22:17:15;15.82;;;8.55;;
37131;SDS011;23035;50.032;21.978;2023-01-16T22:22:38;12.18;;;7.05;;
37131;SDS011;23035;50.032;21.978;2023-01-16T22:27:47;10.55;;;6.70;;
37131;SDS011;23035;50.032;21.978;2023-01-16T22:32:52;5.13;;;3.38;;
37131;SDS011;23035;50.032;21.978;2023-01-16T22:37:56;3.15;;;2.00;;
37131;SDS011;23035;50.032;21.978;2023-01-16T22:43:02;4.13;;;2.50;;
37131;SDS011;23035;50.032;21.978;2023-01-16T22:48:24;4.53;;;2.55;;
37131;SDS011;23035;50.032;21.978;2023-01-16T22:53:28;3.45;;;2.10;;
37131;SDS011;23035;50.032;21.978;2023-01-16T22:58:34;5.00;;;1.83;;
37131;SDS011;23035;50.032;21.978;2023-01-16T23:03:39;4.53;;;1.60;;
37131;SDS011;23035;50.032;21.978;2023-01-16T23:08:45;4.45;;;1.40;;
37131;SDS011;23035;50.032;21.978;2023-01-16T23:13:52;3.47;;;2.20;;
37131;SDS011;23035;50.032;21.978;2023-01-16T23:18:59;2.78;;;1.77;;
37131;SDS011;23035;50.032;21.978;2023-01-16T23:24:06;2.45;;;1.73;;
37131;SDS011;23035;50.032;21.978;2023-01-16T23:29:15;4.22;;;1.75;;
37131;SDS011;23035;50.032;21.978;2023-01-16T23:34:20;8.77;;;1.70;;
37131;SDS011;23035;50.032;21.978;2023-01-16T23:39:29;4.80;;;2.75;;
37131;SDS011;23035;50.032;21.978;2023-01-16T23:44:35;13.23;;;6.57;;
37131;SDS011;23035;50.032;21.978;2023-01-16T23:49:40;14.20;;;6.45;;
37131;SDS011;23035;50.032;21.978;2023-01-16T23:54:46;15.10;;;6.25;;
37131;SDS011;23035;50.032;21.978;2023-01-16T23:59:53;4.67;;;2.23;;
